createdAt,value
2019-05-03T00:00:08.469Z,35.80
2019-05-03T00:03:08.088Z,36.20
2019-05-03T00:06:05.580Z,36.40
2019-05-03T00:09:01.541Z,37.30
2019-05-03T00:11:55.726Z,37.40
2019-05-03T00:14:51.983Z,37.90
2019-05-03T00:17:45.241Z,38.70
2019-05-03T00:20:39.401Z,40.50
2019-05-03T00:23:33.558Z,40.60
2019-05-03T00:26:27.595Z,39.60
2019-05-03T00:29:22.026Z,41.30
2019-05-03T00:32:17.010Z,40.90
2019-05-03T00:35:15.852Z,41.80
2019-05-03T00:38:12.287Z,42.50
2019-05-03T00:41:06.807Z,43.10
2019-05-03T00:44:02.228Z,44.60
2019-05-03T00:46:55.990Z,43.90
2019-05-03T00:49:51.724Z,45.30
2019-05-03T00:52:44.592Z,43.30
2019-05-03T00:55:39.597Z,44.60
2019-05-03T00:58:37.609Z,47.80
2019-05-03T01:01:32.355Z,52.50
2019-05-03T01:04:27.534Z,52.80
2019-05-03T01:07:24.566Z,52.50
2019-05-03T01:10:22.521Z,51.90
2019-05-03T01:13:18.663Z,51.70
2019-05-03T01:16:19.038Z,52.00
2019-05-03T01:19:12.819Z,53.00
2019-05-03T01:22:06.674Z,53.50
2019-05-03T01:24:59.959Z,53.70
2019-05-03T01:27:52.863Z,53.80
2019-05-03T01:30:45.890Z,53.70
2019-05-03T01:33:38.904Z,52.70
2019-05-03T01:36:32.266Z,52.90
2019-05-03T01:39:25.306Z,52.80
2019-05-03T01:42:18.811Z,52.90
2019-05-03T01:45:13.356Z,52.80
2019-05-03T01:48:13.526Z,52.70
2019-05-03T01:51:25.201Z,52.40
2019-05-03T01:54:18.679Z,52.70
2019-05-03T01:57:12.949Z,52.60
2019-05-03T02:00:06.666Z,52.10
2019-05-03T02:03:09.202Z,52.20
2019-05-03T02:06:02.522Z,52.00
2019-05-03T02:08:55.903Z,52.00
2019-05-03T02:11:49.138Z,52.10
2019-05-03T02:14:43.514Z,51.80
2019-05-03T02:17:37.849Z,52.00
2019-05-03T02:20:32.391Z,51.80
2019-05-03T02:23:26.601Z,51.80
2019-05-03T02:26:22.311Z,51.50
2019-05-03T02:29:16.080Z,51.70
2019-05-03T02:32:12.934Z,52.00
2019-05-03T02:35:05.759Z,52.00
2019-05-03T02:38:03.367Z,51.70
2019-05-03T02:40:55.403Z,51.50
2019-05-03T02:43:55.793Z,51.70
2019-05-03T02:47:11.739Z,51.50
2019-05-03T02:50:09.088Z,51.50
2019-05-03T02:53:05.606Z,51.70
2019-05-03T02:56:13.010Z,51.70
2019-05-03T02:58:55.553Z,51.60
2019-05-03T03:01:48.638Z,51.80
2019-05-03T03:04:45.404Z,51.50
2019-05-03T03:07:39.319Z,51.60
2019-05-03T03:10:35.477Z,51.30
2019-05-03T03:13:29.473Z,51.00
2019-05-03T03:16:29.785Z,51.40
2019-05-03T03:19:26.226Z,51.70
2019-05-03T03:22:19.840Z,51.70
2019-05-03T03:25:17.819Z,51.40
2019-05-03T03:28:15.733Z,51.20
2019-05-03T03:31:30.428Z,51.40
2019-05-03T03:34:28.192Z,51.50
2019-05-03T03:37:21.996Z,51.30
2019-05-03T03:40:16.061Z,51.40
2019-05-03T03:43:10.623Z,50.80
2019-05-03T03:46:05.433Z,50.60
2019-05-03T03:48:59.979Z,51.30
2019-05-03T03:51:56.369Z,51.50
2019-05-03T03:54:51.802Z,51.50
2019-05-03T03:57:46.985Z,51.70
2019-05-03T04:00:41.375Z,51.80
2019-05-03T04:03:36.138Z,49.70
2019-05-03T04:06:46.402Z,51.40
2019-05-03T04:09:39.501Z,52.00
2019-05-03T04:12:35.234Z,52.40
2019-05-03T04:15:59.139Z,52.50
2019-05-03T04:19:20.426Z,52.40
2019-05-03T04:22:18.688Z,53.00
2019-05-03T04:25:15.458Z,52.50
2019-05-03T04:28:09.042Z,52.80
2019-05-03T04:31:07.599Z,52.80
2019-05-03T04:34:00.834Z,52.80
2019-05-03T04:36:55.448Z,52.20
2019-05-03T04:39:50.390Z,52.80
2019-05-03T04:42:46.470Z,52.90
2019-05-03T04:45:42.487Z,52.80
2019-05-03T04:48:35.756Z,52.80
2019-05-03T04:51:38.803Z,52.10
2019-05-03T04:54:50.846Z,52.80
2019-05-03T04:57:46.750Z,52.70
2019-05-03T05:00:39.084Z,52.60
2019-05-03T05:03:36.240Z,52.50
2019-05-03T05:06:30.599Z,51.50
2019-05-03T05:09:28.697Z,52.30
2019-05-03T05:12:25.498Z,52.30
2019-05-03T05:15:21.494Z,52.50
2019-05-03T05:18:26.437Z,52.60
2019-05-03T05:21:32.760Z,52.50
2019-05-03T05:24:36.087Z,52.90
2019-05-03T05:27:49.450Z,53.30
2019-05-03T05:30:49.296Z,52.80
2019-05-03T05:33:54.091Z,52.90
2019-05-03T05:36:52.264Z,52.90
2019-05-03T05:39:49.782Z,53.00
2019-05-03T05:42:58.479Z,53.10
2019-05-03T05:49:37.503Z,53.00
2019-05-03T05:52:38.604Z,53.10
2019-05-03T05:56:15.787Z,53.20
2019-05-03T05:59:49.851Z,53.20
2019-05-03T06:02:47.372Z,53.70
2019-05-03T06:05:39.946Z,53.70
2019-05-03T06:08:59.081Z,53.70
2019-05-03T06:12:00.762Z,53.70
2019-05-03T06:15:05.467Z,54.10
2019-05-03T06:18:06.956Z,54.30
2019-05-03T06:21:14.856Z,54.30
2019-05-03T06:24:19.577Z,54.10
2019-05-03T06:27:21.092Z,53.90
2019-05-03T06:30:37.443Z,54.20
2019-05-03T06:33:37.686Z,54.40
2019-05-03T06:36:39.012Z,54.50
2019-05-03T06:39:36.864Z,54.60
2019-05-03T06:42:37.392Z,54.60
2019-05-03T06:45:32.051Z,54.50
2019-05-03T06:48:31.898Z,54.40
2019-05-03T06:51:26.251Z,54.30
2019-05-03T06:58:00.198Z,54.20
2019-05-03T07:01:14.768Z,54.30
2019-05-03T07:04:19.732Z,53.90
2019-05-03T07:07:39.442Z,54.60
2019-05-03T07:10:47.602Z,53.90
2019-05-03T07:13:47.176Z,53.70
2019-05-03T07:16:44.363Z,53.70
2019-05-03T07:19:39.793Z,53.60
2019-05-03T07:22:36.088Z,53.60
2019-05-03T07:25:34.483Z,53.50
2019-05-03T07:28:45.910Z,53.30
2019-05-03T07:31:29.537Z,53.10
2019-05-03T07:34:26.239Z,53.10
2019-05-03T07:37:24.615Z,53.10
2019-05-03T07:40:21.397Z,53.10
2019-05-03T07:43:19.057Z,52.80
2019-05-03T07:46:17.750Z,52.70
2019-05-03T07:49:15.297Z,52.80
2019-05-03T07:52:21.732Z,52.70
2019-05-03T07:55:45.717Z,52.70
2019-05-03T07:58:53.048Z,52.60
2019-05-03T08:01:46.231Z,52.60
2019-05-03T08:04:44.459Z,52.50
2019-05-03T08:07:39.801Z,52.30
2019-05-03T08:10:41.268Z,52.30
2019-05-03T08:13:39.311Z,52.50
2019-05-03T08:16:35.242Z,52.10
2019-05-03T08:19:29.872Z,52.10
2019-05-03T08:22:27.308Z,52.30
2019-05-03T08:25:24.963Z,52.60
2019-05-03T08:28:20.442Z,53.00
2019-05-03T08:31:40.538Z,52.80
2019-05-03T08:34:45.263Z,52.80
2019-05-03T08:37:58.126Z,52.60
2019-05-03T08:40:54.821Z,52.40
2019-05-03T08:43:51.051Z,52.30
2019-05-03T08:46:47.879Z,52.20
2019-05-03T08:49:44.881Z,52.10
2019-05-03T08:52:39.591Z,52.10
2019-05-03T08:55:35.431Z,52.20
2019-05-03T08:58:30.273Z,52.30
2019-05-03T09:01:25.289Z,52.10
2019-05-03T09:04:32.989Z,52.00
2019-05-03T09:10:35.196Z,52.00
2019-05-03T09:13:31.921Z,52.00
2019-05-03T09:16:33.113Z,52.20
2019-05-03T09:19:52.382Z,52.20
2019-05-03T09:23:15.037Z,52.20
2019-05-03T09:26:04.665Z,52.70
2019-05-03T09:28:59.679Z,52.20
2019-05-03T09:31:59.682Z,52.20
2019-05-03T09:35:27.185Z,52.30
2019-05-03T09:41:29.247Z,52.10
2019-05-03T09:44:34.999Z,52.00
2019-05-03T09:47:44.873Z,52.00
2019-05-03T09:50:45.199Z,52.10
2019-05-03T09:53:47.512Z,52.20
2019-05-03T09:57:05.682Z,51.50
2019-05-03T10:00:00.767Z,52.10
2019-05-03T10:03:01.060Z,52.10
2019-05-03T10:06:01.396Z,52.10
2019-05-03T10:08:58.890Z,51.90
2019-05-03T10:11:55.754Z,51.80
2019-05-03T10:14:50.827Z,51.60
2019-05-03T10:18:10.590Z,51.50
2019-05-03T10:21:05.056Z,51.50
2019-05-03T10:24:01.447Z,51.40
2019-05-03T10:26:57.811Z,51.30
2019-05-03T10:29:55.954Z,51.40
2019-05-03T10:33:00.583Z,51.40
2019-05-03T10:35:56.995Z,51.30
2019-05-03T10:38:55.213Z,51.00
2019-05-03T10:41:55.007Z,50.90
2019-05-03T10:45:02.020Z,50.70
2019-05-03T10:47:57.437Z,50.30
2019-05-03T10:50:52.633Z,50.60
2019-05-03T10:53:54.672Z,50.50
2019-05-03T10:56:59.652Z,50.30
2019-05-03T10:59:55.601Z,50.40
2019-05-03T11:02:57.986Z,50.20
2019-05-03T11:05:54.730Z,50.10
2019-05-03T11:08:47.816Z,50.00
2019-05-03T11:11:45.284Z,49.90
2019-05-03T11:14:42.448Z,49.70
2019-05-03T11:17:41.067Z,49.50
2019-05-03T11:20:41.521Z,49.40
2019-05-03T11:23:40.101Z,49.10
2019-05-03T11:26:39.558Z,48.80
2019-05-03T11:29:36.243Z,48.50
2019-05-03T11:32:51.204Z,48.40
2019-05-03T11:36:06.634Z,48.40
2019-05-03T11:39:02.548Z,48.40
2019-05-03T11:42:00.671Z,48.40
2019-05-03T11:44:57.086Z,48.80
2019-05-03T11:47:55.068Z,48.30
2019-05-03T11:50:50.738Z,48.60
2019-05-03T11:53:51.314Z,48.70
2019-05-03T12:00:39.465Z,48.80
2019-05-03T12:03:48.030Z,48.60
2019-05-03T12:06:45.470Z,48.50
2019-05-03T12:09:41.832Z,48.30
2019-05-03T12:12:44.565Z,47.90
2019-05-03T12:15:50.212Z,47.70
2019-05-03T12:18:53.124Z,49.50
2019-05-03T12:21:42.255Z,52.50
2019-05-03T12:24:37.991Z,56.10
2019-05-03T12:27:34.983Z,57.10
2019-05-03T12:30:29.339Z,56.40
2019-05-03T12:33:26.518Z,54.30
2019-05-03T12:36:21.882Z,53.80
2019-05-03T12:39:26.681Z,52.60
2019-05-03T12:42:18.606Z,52.50
2019-05-03T12:45:12.100Z,51.70
2019-05-03T12:48:10.744Z,51.90
2019-05-03T12:51:07.132Z,51.40
2019-05-03T12:54:06.279Z,51.40
2019-05-03T12:57:01.135Z,51.30
2019-05-03T13:00:05.014Z,50.20
2019-05-03T13:03:05.200Z,51.30
2019-05-03T13:06:00.213Z,50.70
2019-05-03T13:08:55.649Z,50.40
2019-05-03T13:11:55.678Z,50.40
2019-05-03T13:14:46.774Z,50.00
2019-05-03T13:17:41.089Z,50.10
2019-05-03T13:20:37.750Z,50.10
2019-05-03T13:23:35.383Z,49.80
2019-05-03T13:26:30.803Z,49.60
2019-05-03T13:29:25.637Z,49.40
2019-05-03T13:32:22.084Z,49.20
2019-05-03T13:35:20.738Z,49.20
2019-05-03T13:38:16.783Z,49.40
2019-05-03T13:41:12.062Z,49.30
2019-05-03T13:44:06.005Z,49.30
2019-05-03T13:47:01.312Z,49.20
2019-05-03T13:49:56.111Z,49.20
2019-05-03T13:52:51.256Z,49.20
2019-05-03T13:55:44.633Z,49.20
2019-05-03T13:58:39.800Z,49.20
2019-05-03T14:01:34.568Z,49.20
2019-05-03T14:04:28.493Z,49.20
2019-05-03T14:07:22.838Z,49.10
2019-05-03T14:10:17.952Z,49.20
2019-05-03T14:13:15.352Z,49.10
2019-05-03T14:16:11.785Z,49.10
2019-05-03T14:19:14.655Z,49.10
2019-05-03T14:22:12.485Z,49.10
2019-05-03T14:25:08.518Z,49.10
2019-05-03T14:28:05.334Z,49.10
2019-05-03T14:31:00.614Z,49.10
2019-05-03T14:33:55.812Z,49.10
2019-05-03T14:36:51.770Z,49.10
2019-05-03T14:39:48.561Z,49.10
2019-05-03T14:42:44.636Z,49.10
2019-05-03T14:45:41.003Z,49.10
2019-05-03T14:48:38.417Z,49.10
2019-05-03T14:51:34.934Z,49.10
2019-05-03T14:54:34.477Z,49.10
2019-05-03T14:57:38.406Z,49.00
2019-05-03T15:00:46.804Z,49.00
2019-05-03T15:03:43.712Z,49.10
2019-05-03T15:06:40.441Z,49.10
2019-05-03T15:09:35.733Z,49.10
2019-05-03T15:12:30.685Z,49.30
2019-05-03T15:15:28.723Z,49.20
2019-05-03T15:18:25.346Z,49.10
2019-05-03T15:21:20.210Z,49.10
2019-05-03T15:24:15.167Z,49.10
2019-05-03T15:27:11.681Z,49.20
2019-05-03T15:30:06.409Z,49.10
2019-05-03T15:33:01.517Z,49.90
2019-05-03T15:35:55.394Z,49.10
2019-05-03T15:38:50.569Z,49.20
2019-05-03T15:41:45.104Z,49.10
2019-05-03T15:45:01.225Z,49.20
2019-05-03T15:48:17.529Z,49.40
2019-05-03T15:51:15.003Z,49.20
2019-05-03T15:54:07.924Z,49.30
2019-05-03T15:57:05.025Z,49.30
2019-05-03T16:00:01.124Z,49.40
2019-05-03T16:03:08.009Z,49.20
2019-05-03T16:05:56.235Z,49.20
2019-05-03T16:08:52.658Z,49.40
2019-05-03T16:11:48.277Z,49.40
2019-05-03T16:14:45.045Z,49.20
2019-05-03T16:17:40.215Z,49.30
2019-05-03T16:20:39.170Z,49.20
2019-05-03T16:23:32.413Z,49.40
2019-05-03T16:26:27.718Z,49.40
2019-05-03T16:29:21.995Z,49.20
2019-05-03T16:32:18.105Z,49.40
2019-05-03T16:35:14.882Z,49.30
2019-05-03T16:38:12.530Z,49.30
2019-05-03T16:41:09.895Z,49.40
2019-05-03T16:44:06.643Z,49.40
2019-05-03T16:47:06.986Z,49.40
2019-05-03T16:50:00.081Z,49.30
2019-05-03T16:52:55.545Z,49.40
2019-05-03T16:55:49.699Z,49.30
2019-05-03T16:58:44.645Z,49.30
2019-05-03T17:01:41.426Z,49.30
2019-05-03T17:04:46.420Z,49.20
2019-05-03T17:07:48.122Z,49.20
2019-05-03T17:10:48.568Z,49.20
2019-05-03T17:13:46.215Z,49.30
2019-05-03T17:16:41.860Z,48.80
2019-05-03T17:19:36.445Z,49.20
2019-05-03T17:22:34.342Z,49.30
2019-05-03T17:25:27.919Z,49.20
2019-05-03T17:28:22.164Z,49.20
2019-05-03T17:31:16.168Z,49.20
2019-05-03T17:34:11.699Z,49.20
2019-05-03T17:37:09.155Z,49.10
2019-05-03T17:40:22.602Z,47.10
2019-05-03T17:43:24.864Z,46.10
2019-05-03T17:46:19.935Z,45.10
2019-05-03T17:49:14.785Z,43.90
2019-05-03T17:52:28.414Z,43.00
2019-05-03T17:55:41.906Z,42.20
2019-05-03T17:58:47.562Z,41.50
2019-05-03T18:01:59.675Z,40.80
2019-05-03T18:05:14.521Z,40.10
2019-05-03T18:08:35.917Z,39.80
2019-05-03T18:11:34.787Z,39.30
2019-05-03T18:14:29.087Z,39.10
2019-05-03T18:17:24.648Z,39.30
2019-05-03T18:20:18.443Z,38.50
2019-05-03T18:23:15.228Z,38.10
2019-05-03T18:26:10.521Z,38.10
2019-05-03T18:29:06.187Z,37.90
2019-05-03T18:32:01.758Z,37.80
2019-05-03T18:34:59.738Z,37.90
2019-05-03T18:38:02.709Z,37.70
2019-05-03T18:40:58.753Z,37.90
2019-05-03T18:44:10.985Z,37.90
2019-05-03T18:47:12.063Z,37.80
2019-05-03T18:50:07.615Z,37.70
2019-05-03T18:53:04.637Z,38.00
2019-05-03T18:56:00.042Z,37.90
2019-05-03T19:02:02.796Z,37.90
2019-05-03T19:04:59.067Z,37.90
2019-05-03T19:08:01.854Z,37.90
2019-05-03T19:11:04.453Z,37.70
2019-05-03T19:14:04.785Z,37.90
2019-05-03T19:17:17.547Z,37.90
2019-05-03T19:20:18.431Z,37.80
2019-05-03T19:23:15.311Z,37.90
2019-05-03T19:26:11.110Z,37.80
2019-05-03T19:29:06.088Z,37.60
2019-05-03T19:32:04.472Z,37.50
2019-05-03T19:34:58.941Z,37.80
2019-05-03T19:37:55.318Z,37.80
2019-05-03T19:40:50.114Z,37.70
2019-05-03T19:43:45.562Z,37.80
2019-05-03T19:46:40.473Z,37.90
2019-05-03T19:49:36.842Z,38.00
2019-05-03T19:52:36.983Z,38.10
2019-05-03T19:55:33.846Z,38.00
2019-05-03T19:58:29.970Z,38.30
2019-05-03T20:01:44.548Z,38.50
2019-05-03T20:05:07.351Z,38.30
2019-05-03T20:08:11.283Z,38.00
2019-05-03T20:11:21.484Z,38.30
2019-05-03T20:14:18.367Z,38.40
2019-05-03T20:17:14.838Z,38.20
2019-05-03T20:20:10.361Z,38.20
2019-05-03T20:23:05.258Z,38.50
2019-05-03T20:26:00.184Z,38.50
2019-05-03T20:28:55.475Z,38.30
2019-05-03T20:31:50.571Z,38.50
2019-05-03T20:34:45.684Z,38.40
2019-05-03T20:37:40.445Z,38.50
2019-05-03T20:40:36.729Z,38.60
2019-05-03T20:43:51.729Z,38.50
2019-05-03T20:46:51.198Z,38.40
2019-05-03T20:49:47.376Z,38.40
2019-05-03T20:52:44.481Z,38.40
2019-05-03T20:55:40.126Z,38.40
2019-05-03T20:58:35.794Z,38.50
2019-05-03T21:01:32.089Z,38.40
2019-05-03T21:04:29.663Z,38.60
2019-05-03T21:07:23.050Z,38.40
2019-05-03T21:10:17.291Z,38.50
2019-05-03T21:13:11.334Z,38.20
2019-05-03T21:16:14.767Z,38.40
2019-05-03T21:19:26.438Z,38.90
2019-05-03T21:22:24.960Z,38.70
2019-05-03T21:25:25.869Z,38.70
2019-05-03T21:28:20.332Z,38.50
2019-05-03T21:31:15.619Z,38.30
2019-05-03T21:34:10.147Z,38.40
2019-05-03T21:37:03.789Z,38.40
2019-05-03T21:39:58.523Z,38.40
2019-05-03T21:42:54.480Z,38.50
2019-05-03T21:45:54.421Z,38.30
2019-05-03T21:49:10.514Z,38.30
2019-05-03T21:52:04.585Z,38.60
2019-05-03T21:54:58.514Z,38.50
2019-05-03T21:57:52.858Z,38.50
2019-05-03T22:01:01.488Z,38.50
2019-05-03T22:03:57.004Z,38.50
2019-05-03T22:06:51.544Z,38.40
2019-05-03T22:09:45.307Z,38.50
2019-05-03T22:12:41.104Z,38.80
2019-05-03T22:15:49.326Z,39.30
2019-05-03T22:18:49.382Z,38.80
2019-05-03T22:21:51.035Z,38.80
2019-05-03T22:24:49.851Z,38.70
2019-05-03T22:27:45.562Z,38.80
2019-05-03T22:30:42.865Z,38.80
2019-05-03T22:33:37.992Z,38.60
2019-05-03T22:36:31.596Z,38.60
2019-05-03T22:39:26.353Z,38.60
2019-05-03T22:42:21.198Z,38.60
2019-05-03T22:45:15.844Z,38.40
2019-05-03T22:48:11.089Z,38.30
2019-05-03T22:51:05.086Z,38.40
2019-05-03T22:54:00.133Z,38.30
2019-05-03T22:56:55.614Z,38.40
2019-05-03T22:59:50.294Z,38.40
2019-05-03T23:02:45.672Z,38.30
2019-05-03T23:05:40.476Z,38.40
2019-05-03T23:08:35.180Z,38.50
2019-05-03T23:11:29.410Z,38.40
2019-05-03T23:14:25.467Z,38.40
2019-05-03T23:17:19.697Z,38.00
2019-05-03T23:20:22.945Z,37.10
2019-05-03T23:23:35.598Z,36.70
2019-05-03T23:26:30.449Z,36.60
2019-05-03T23:29:24.779Z,37.10
2019-05-03T23:32:18.311Z,37.00
2019-05-03T23:35:11.945Z,37.30
2019-05-03T23:38:07.977Z,37.70
2019-05-03T23:41:04.688Z,38.30
2019-05-03T23:43:58.477Z,38.60
2019-05-03T23:47:05.806Z,38.70
2019-05-03T23:49:59.723Z,39.10
2019-05-03T23:52:54.524Z,39.90
2019-05-03T23:56:00.574Z,40.30
2019-05-03T23:58:55.078Z,40.90
